KLND/LND METAR and TAF weather

Enter ICAO airport designator
Station Type Date Time Source
KLND METAR 2021/09/20 05:53 UTC NOAA

KLND 200553Z AUTO 30006KT 10SM CLR 08/M02 A3003 RMK AO2 SLP118 60000 T00831022 10167 20083 51029


Station Type Date Time Source
KLND Decoded METAR 2021/09/20 05:53 UTC NOAA

LANDER HUNT FIELD, WY, United States (KLND) 42-49N 108-44W 1694M
Sep 20, 2021 - 01:53 AM EDT / 2021.09.20 0553 UTC
Wind: from the WNW (300 degrees) at 7 MPH (6 KT):0
Visibility: 10 mile(s):0
Sky conditions: clear
Temperature: 46.9 F (8.3 C)
Dew Point: 28.0 F (-2.2 C)
Relative Humidity: 47%
Pressure (altimeter): 30.03 in. Hg (1016 hPa)
Pressure tendency: 0.09 inches (2.9 hPa) higher than three hours ago
ob: KLND 200553Z AUTO 30006KT 10SM CLR 08/M02 A3003 RMK AO2 SLP118 60000 T00831022 10167 20083 51029
cycle: 6

Station Type Date Time Source
KLND TAF 2021/09/20 06:30 UTC NOAA

TAF KLND 200527Z 2006/2106 31007KT P6SM SCT060 BKN090
FM201200 03006KT P6SM SCT050 BKN080
FM202000 34007KT P6SM VCSH SCT050 BKN080
FM210100 28006KT P6SM SCT080 BKN120
FM210500 VRB05KT P6SM FEW150

Example: see airport list